sensor_id;sensor_type;location;lat;lon;timestamp;P1;durP1;ratioP1;P2;durP2;ratioP2
16015;SDS011;8112;53.592;10.184;2023-02-22T00:03:10;15.87;;;8.90;;
16015;SDS011;8112;53.592;10.184;2023-02-22T00:08:16;10.63;;;5.70;;
16015;SDS011;8112;53.592;10.184;2023-02-22T00:13:21;10.70;;;5.93;;
16015;SDS011;8112;53.592;10.184;2023-02-22T00:18:23;11.83;;;5.97;;
16015;SDS011;8112;53.592;10.184;2023-02-22T00:23:30;8.20;;;5.73;;
16015;SDS011;8112;53.592;10.184;2023-02-22T00:28:32;9.57;;;6.23;;
16015;SDS011;8112;53.592;10.184;2023-02-22T00:33:37;8.27;;;5.30;;
16015;SDS011;8112;53.592;10.184;2023-02-22T00:38:42;12.97;;;6.63;;
16015;SDS011;8112;53.592;10.184;2023-02-22T00:43:45;16.40;;;6.20;;
16015;SDS011;8112;53.592;10.184;2023-02-22T00:48:49;10.67;;;5.77;;
16015;SDS011;8112;53.592;10.184;2023-02-22T00:53:52;16.10;;;6.50;;
16015;SDS011;8112;53.592;10.184;2023-02-22T00:58:54;12.67;;;5.50;;
16015;SDS011;8112;53.592;10.184;2023-02-22T01:03:56;11.90;;;6.20;;
16015;SDS011;8112;53.592;10.184;2023-02-22T01:09:00;14.07;;;6.13;;
16015;SDS011;8112;53.592;10.184;2023-02-22T01:14:03;12.10;;;6.17;;
16015;SDS011;8112;53.592;10.184;2023-02-22T01:19:09;12.60;;;6.83;;
16015;SDS011;8112;53.592;10.184;2023-02-22T01:24:13;13.47;;;6.80;;
16015;SDS011;8112;53.592;10.184;2023-02-22T01:29:16;11.73;;;6.50;;
16015;SDS011;8112;53.592;10.184;2023-02-22T01:34:21;9.47;;;5.43;;
16015;SDS011;8112;53.592;10.184;2023-02-22T01:39:26;12.57;;;6.20;;
16015;SDS011;8112;53.592;10.184;2023-02-22T01:44:28;8.37;;;5.60;;
16015;SDS011;8112;53.592;10.184;2023-02-22T01:49:35;12.43;;;7.03;;
16015;SDS011;8112;53.592;10.184;2023-02-22T01:54:44;10.80;;;6.60;;
16015;SDS011;8112;53.592;10.184;2023-02-22T01:59:51;12.47;;;6.70;;
16015;SDS011;8112;53.592;10.184;2023-02-22T02:04:57;13.40;;;7.30;;
16015;SDS011;8112;53.592;10.184;2023-02-22T02:10:02;10.87;;;6.57;;
16015;SDS011;8112;53.592;10.184;2023-02-22T02:15:16;15.47;;;7.70;;
16015;SDS011;8112;53.592;10.184;2023-02-22T02:20:21;14.00;;;7.50;;
16015;SDS011;8112;53.592;10.184;2023-02-22T02:25:40;11.80;;;7.37;;
16015;SDS011;8112;53.592;10.184;2023-02-22T02:31:06;11.53;;;6.87;;
16015;SDS011;8112;53.592;10.184;2023-02-22T02:36:35;11.00;;;6.17;;
16015;SDS011;8112;53.592;10.184;2023-02-22T02:41:48;10.77;;;5.60;;
16015;SDS011;8112;53.592;10.184;2023-02-22T02:46:54;11.97;;;6.30;;
16015;SDS011;8112;53.592;10.184;2023-02-22T02:52:03;12.20;;;5.63;;
16015;SDS011;8112;53.592;10.184;2023-02-22T02:57:07;10.83;;;5.10;;
16015;SDS011;8112;53.592;10.184;2023-02-22T03:02:15;11.10;;;5.27;;
16015;SDS011;8112;53.592;10.184;2023-02-22T03:07:44;9.70;;;6.10;;
16015;SDS011;8112;53.592;10.184;2023-02-22T03:12:56;13.27;;;6.00;;
16015;SDS011;8112;53.592;10.184;2023-02-22T03:18:08;12.37;;;6.53;;
16015;SDS011;8112;53.592;10.184;2023-02-22T03:23:21;13.80;;;6.23;;
16015;SDS011;8112;53.592;10.184;2023-02-22T03:28:30;12.43;;;6.47;;
16015;SDS011;8112;53.592;10.184;2023-02-22T03:33:35;12.87;;;6.30;;
16015;SDS011;8112;53.592;10.184;2023-02-22T03:38:42;10.67;;;5.73;;
16015;SDS011;8112;53.592;10.184;2023-02-22T03:43:48;9.80;;;5.90;;
16015;SDS011;8112;53.592;10.184;2023-02-22T03:48:54;10.00;;;5.70;;
16015;SDS011;8112;53.592;10.184;2023-02-22T03:54:08;13.27;;;7.20;;
16015;SDS011;8112;53.592;10.184;2023-02-22T03:59:15;15.00;;;7.70;;
16015;SDS011;8112;53.592;10.184;2023-02-22T04:04:18;13.50;;;7.07;;
16015;SDS011;8112;53.592;10.184;2023-02-22T04:09:26;13.30;;;7.10;;
16015;SDS011;8112;53.592;10.184;2023-02-22T04:14:29;14.43;;;6.47;;
16015;SDS011;8112;53.592;10.184;2023-02-22T04:19:31;11.03;;;6.37;;
16015;SDS011;8112;53.592;10.184;2023-02-22T04:24:35;10.33;;;5.87;;
16015;SDS011;8112;53.592;10.184;2023-02-22T04:29:37;8.77;;;5.23;;
16015;SDS011;8112;53.592;10.184;2023-02-22T04:34:40;11.93;;;6.90;;
16015;SDS011;8112;53.592;10.184;2023-02-22T04:39:45;10.47;;;6.10;;
16015;SDS011;8112;53.592;10.184;2023-02-22T04:44:50;12.27;;;6.37;;
16015;SDS011;8112;53.592;10.184;2023-02-22T04:49:53;10.07;;;6.33;;
16015;SDS011;8112;53.592;10.184;2023-02-22T04:54:56;9.97;;;5.37;;
16015;SDS011;8112;53.592;10.184;2023-02-22T04:59:59;10.83;;;6.13;;
16015;SDS011;8112;53.592;10.184;2023-02-22T05:05:05;9.70;;;5.70;;
16015;SDS011;8112;53.592;10.184;2023-02-22T05:10:09;14.73;;;7.13;;
16015;SDS011;8112;53.592;10.184;2023-02-22T05:15:15;10.77;;;5.60;;
16015;SDS011;8112;53.592;10.184;2023-02-22T05:20:21;12.13;;;6.70;;
16015;SDS011;8112;53.592;10.184;2023-02-22T05:25:28;14.30;;;7.23;;
16015;SDS011;8112;53.592;10.184;2023-02-22T05:30:31;10.53;;;7.30;;
16015;SDS011;8112;53.592;10.184;2023-02-22T05:35:37;11.57;;;7.60;;
16015;SDS011;8112;53.592;10.184;2023-02-22T05:40:41;14.23;;;7.57;;
16015;SDS011;8112;53.592;10.184;2023-02-22T05:45:43;14.73;;;8.17;;
16015;SDS011;8112;53.592;10.184;2023-02-22T05:50:45;16.67;;;8.60;;
16015;SDS011;8112;53.592;10.184;2023-02-22T05:55:50;19.43;;;10.00;;
16015;SDS011;8112;53.592;10.184;2023-02-22T06:00:52;16.67;;;9.60;;
16015;SDS011;8112;53.592;10.184;2023-02-22T06:05:54;16.83;;;9.80;;
16015;SDS011;8112;53.592;10.184;2023-02-22T06:10:58;14.57;;;9.37;;
16015;SDS011;8112;53.592;10.184;2023-02-22T06:16:00;16.47;;;10.00;;
16015;SDS011;8112;53.592;10.184;2023-02-22T06:21:02;17.13;;;9.83;;
16015;SDS011;8112;53.592;10.184;2023-02-22T06:26:09;20.87;;;11.63;;
16015;SDS011;8112;53.592;10.184;2023-02-22T06:31:11;17.70;;;10.23;;
16015;SDS011;8112;53.592;10.184;2023-02-22T06:36:13;19.60;;;11.47;;
16015;SDS011;8112;53.592;10.184;2023-02-22T06:41:17;17.13;;;10.07;;
16015;SDS011;8112;53.592;10.184;2023-02-22T06:46:19;21.70;;;11.20;;
16015;SDS011;8112;53.592;10.184;2023-02-22T06:51:21;20.03;;;11.00;;
16015;SDS011;8112;53.592;10.184;2023-02-22T06:56:26;18.50;;;10.90;;
16015;SDS011;8112;53.592;10.184;2023-02-22T07:01:28;23.17;;;11.07;;
16015;SDS011;8112;53.592;10.184;2023-02-22T07:06:31;18.53;;;11.33;;
16015;SDS011;8112;53.592;10.184;2023-02-22T07:11:36;18.47;;;10.10;;
16015;SDS011;8112;53.592;10.184;2023-02-22T07:16:38;16.90;;;9.83;;
16015;SDS011;8112;53.592;10.184;2023-02-22T07:21:40;20.80;;;10.73;;
16015;SDS011;8112;53.592;10.184;2023-02-22T07:26:49;19.57;;;9.57;;
16015;SDS011;8112;53.592;10.184;2023-02-22T07:31:51;16.27;;;9.67;;
16015;SDS011;8112;53.592;10.184;2023-02-22T07:36:53;17.90;;;10.13;;
16015;SDS011;8112;53.592;10.184;2023-02-22T07:41:56;19.77;;;10.30;;
16015;SDS011;8112;53.592;10.184;2023-02-22T07:47:02;18.30;;;11.00;;
16015;SDS011;8112;53.592;10.184;2023-02-22T07:52:04;20.30;;;10.33;;
16015;SDS011;8112;53.592;10.184;2023-02-22T07:57:08;19.50;;;10.20;;
16015;SDS011;8112;53.592;10.184;2023-02-22T08:02:10;18.43;;;11.00;;
16015;SDS011;8112;53.592;10.184;2023-02-22T08:07:17;17.13;;;10.57;;
16015;SDS011;8112;53.592;10.184;2023-02-22T08:12:22;18.23;;;11.30;;
16015;SDS011;8112;53.592;10.184;2023-02-22T08:17:25;20.53;;;11.43;;
16015;SDS011;8112;53.592;10.184;2023-02-22T08:22:27;20.20;;;11.77;;
16015;SDS011;8112;53.592;10.184;2023-02-22T08:27:33;22.57;;;11.03;;
16015;SDS011;8112;53.592;10.184;2023-02-22T08:32:35;19.30;;;11.53;;
16015;SDS011;8112;53.592;10.184;2023-02-22T08:37:40;18.90;;;11.83;;
16015;SDS011;8112;53.592;10.184;2023-02-22T08:42:45;21.67;;;12.67;;
16015;SDS011;8112;53.592;10.184;2023-02-22T08:47:47;22.20;;;11.47;;
16015;SDS011;8112;53.592;10.184;2023-02-22T08:52:50;22.23;;;11.63;;
16015;SDS011;8112;53.592;10.184;2023-02-22T08:57:55;23.17;;;13.40;;
16015;SDS011;8112;53.592;10.184;2023-02-22T09:03:00;23.10;;;12.97;;
16015;SDS011;8112;53.592;10.184;2023-02-22T09:08:03;24.53;;;12.40;;
16015;SDS011;8112;53.592;10.184;2023-02-22T09:13:08;21.33;;;12.43;;
16015;SDS011;8112;53.592;10.184;2023-02-22T09:18:11;21.30;;;12.40;;
16015;SDS011;8112;53.592;10.184;2023-02-22T09:23:17;25.47;;;13.57;;
16015;SDS011;8112;53.592;10.184;2023-02-22T09:28:21;20.73;;;12.13;;
16015;SDS011;8112;53.592;10.184;2023-02-22T09:33:24;24.43;;;13.07;;
16015;SDS011;8112;53.592;10.184;2023-02-22T09:38:26;21.47;;;12.27;;
16015;SDS011;8112;53.592;10.184;2023-02-22T09:43:33;18.73;;;12.10;;
16015;SDS011;8112;53.592;10.184;2023-02-22T09:48:43;21.00;;;12.27;;
16015;SDS011;8112;53.592;10.184;2023-02-22T09:53:58;19.87;;;11.27;;
16015;SDS011;8112;53.592;10.184;2023-02-22T09:59:04;20.90;;;12.37;;
16015;SDS011;8112;53.592;10.184;2023-02-22T10:04:10;21.13;;;11.80;;
16015;SDS011;8112;53.592;10.184;2023-02-22T10:09:18;19.77;;;12.17;;
16015;SDS011;8112;53.592;10.184;2023-02-22T10:14:37;16.13;;;10.43;;
16015;SDS011;8112;53.592;10.184;2023-02-22T10:19:52;14.63;;;10.97;;
16015;SDS011;8112;53.592;10.184;2023-02-22T10:25:09;17.10;;;10.87;;
16015;SDS011;8112;53.592;10.184;2023-02-22T10:30:20;17.23;;;10.70;;
16015;SDS011;8112;53.592;10.184;2023-02-22T10:35:26;17.77;;;11.37;;
16015;SDS011;8112;53.592;10.184;2023-02-22T10:40:30;17.30;;;10.97;;
16015;SDS011;8112;53.592;10.184;2023-02-22T10:45:34;17.63;;;10.93;;
16015;SDS011;8112;53.592;10.184;2023-02-22T10:50:37;17.20;;;11.40;;
16015;SDS011;8112;53.592;10.184;2023-02-22T11:01:17;18.53;;;11.30;;
16015;SDS011;8112;53.592;10.184;2023-02-22T11:06:21;17.83;;;11.80;;
16015;SDS011;8112;53.592;10.184;2023-02-22T11:11:23;18.33;;;11.60;;
16015;SDS011;8112;53.592;10.184;2023-02-22T11:16:31;16.07;;;11.30;;
16015;SDS011;8112;53.592;10.184;2023-02-22T11:21:35;18.70;;;12.40;;
16015;SDS011;8112;53.592;10.184;2023-02-22T11:26:39;20.13;;;12.77;;
16015;SDS011;8112;53.592;10.184;2023-02-22T11:31:44;16.90;;;12.17;;
16015;SDS011;8112;53.592;10.184;2023-02-22T11:36:48;19.13;;;11.27;;
16015;SDS011;8112;53.592;10.184;2023-02-22T11:41:50;17.27;;;11.90;;
16015;SDS011;8112;53.592;10.184;2023-02-22T11:46:54;17.03;;;11.20;;
16015;SDS011;8112;53.592;10.184;2023-02-22T11:52:06;15.67;;;11.20;;
16015;SDS011;8112;53.592;10.184;2023-02-22T11:57:30;15.73;;;11.40;;
16015;SDS011;8112;53.592;10.184;2023-02-22T12:02:51;16.73;;;10.67;;
16015;SDS011;8112;53.592;10.184;2023-02-22T12:08:09;18.43;;;12.00;;
16015;SDS011;8112;53.592;10.184;2023-02-22T12:13:27;16.50;;;11.23;;
16015;SDS011;8112;53.592;10.184;2023-02-22T12:18:43;15.53;;;11.40;;
16015;SDS011;8112;53.592;10.184;2023-02-22T12:24:00;19.50;;;12.87;;
16015;SDS011;8112;53.592;10.184;2023-02-22T12:29:08;15.03;;;9.90;;
16015;SDS011;8112;53.592;10.184;2023-02-22T12:34:19;17.57;;;11.10;;
16015;SDS011;8112;53.592;10.184;2023-02-22T12:39:32;16.93;;;11.13;;
16015;SDS011;8112;53.592;10.184;2023-02-22T12:44:41;16.17;;;9.73;;
16015;SDS011;8112;53.592;10.184;2023-02-22T12:49:53;16.07;;;11.10;;
16015;SDS011;8112;53.592;10.184;2023-02-22T12:55:03;16.60;;;10.67;;
16015;SDS011;8112;53.592;10.184;2023-02-22T13:00:13;15.70;;;10.70;;
16015;SDS011;8112;53.592;10.184;2023-02-22T13:05:23;19.10;;;11.23;;
16015;SDS011;8112;53.592;10.184;2023-02-22T13:10:31;16.93;;;10.20;;
16015;SDS011;8112;53.592;10.184;2023-02-22T13:15:55;15.53;;;9.57;;
16015;SDS011;8112;53.592;10.184;2023-02-22T13:21:07;15.30;;;9.37;;
16015;SDS011;8112;53.592;10.184;2023-02-22T13:26:17;14.63;;;8.90;;
16015;SDS011;8112;53.592;10.184;2023-02-22T13:31:30;15.60;;;10.13;;
16015;SDS011;8112;53.592;10.184;2023-02-22T13:36:58;16.37;;;9.93;;
16015;SDS011;8112;53.592;10.184;2023-02-22T13:47:57;16.00;;;9.60;;
16015;SDS011;8112;53.592;10.184;2023-02-22T13:53:18;14.97;;;10.07;;
16015;SDS011;8112;53.592;10.184;2023-02-22T13:58:25;15.27;;;9.53;;
16015;SDS011;8112;53.592;10.184;2023-02-22T14:03:32;15.20;;;10.33;;
16015;SDS011;8112;53.592;10.184;2023-02-22T14:08:44;14.70;;;9.67;;
16015;SDS011;8112;53.592;10.184;2023-02-22T14:19:18;18.13;;;11.07;;
16015;SDS011;8112;53.592;10.184;2023-02-22T14:24:24;16.80;;;10.93;;
16015;SDS011;8112;53.592;10.184;2023-02-22T14:29:26;17.93;;;11.10;;
16015;SDS011;8112;53.592;10.184;2023-02-22T14:34:39;16.07;;;10.87;;
16015;SDS011;8112;53.592;10.184;2023-02-22T14:39:45;15.77;;;10.87;;
16015;SDS011;8112;53.592;10.184;2023-02-22T14:44:52;16.57;;;11.03;;
16015;SDS011;8112;53.592;10.184;2023-02-22T14:50:02;15.77;;;10.60;;
16015;SDS011;8112;53.592;10.184;2023-02-22T14:55:14;16.53;;;11.47;;
16015;SDS011;8112;53.592;10.184;2023-02-22T15:00:21;16.33;;;9.90;;
16015;SDS011;8112;53.592;10.184;2023-02-22T15:05:33;19.57;;;11.37;;
16015;SDS011;8112;53.592;10.184;2023-02-22T15:10:39;16.90;;;9.93;;
16015;SDS011;8112;53.592;10.184;2023-02-22T15:15:43;16.53;;;10.60;;
16015;SDS011;8112;53.592;10.184;2023-02-22T15:20:46;14.97;;;10.20;;
16015;SDS011;8112;53.592;10.184;2023-02-22T15:25:56;17.53;;;10.30;;
16015;SDS011;8112;53.592;10.184;2023-02-22T15:36:36;18.43;;;10.43;;
16015;SDS011;8112;53.592;10.184;2023-02-22T15:41:39;18.60;;;11.27;;
16015;SDS011;8112;53.592;10.184;2023-02-22T15:46:42;18.40;;;10.93;;
16015;SDS011;8112;53.592;10.184;2023-02-22T15:51:44;14.37;;;10.10;;
16015;SDS011;8112;53.592;10.184;2023-02-22T15:56:52;18.40;;;11.37;;
16015;SDS011;8112;53.592;10.184;2023-02-22T16:01:55;17.53;;;10.47;;
16015;SDS011;8112;53.592;10.184;2023-02-22T16:07:01;14.93;;;10.10;;
16015;SDS011;8112;53.592;10.184;2023-02-22T16:12:24;17.30;;;10.43;;
16015;SDS011;8112;53.592;10.184;2023-02-22T16:17:34;14.63;;;10.40;;
16015;SDS011;8112;53.592;10.184;2023-02-22T16:22:38;19.10;;;11.63;;
16015;SDS011;8112;53.592;10.184;2023-02-22T16:27:47;16.63;;;9.77;;
16015;SDS011;8112;53.592;10.184;2023-02-22T16:32:52;18.50;;;11.37;;
16015;SDS011;8112;53.592;10.184;2023-02-22T16:37:56;17.13;;;10.77;;
16015;SDS011;8112;53.592;10.184;2023-02-22T16:43:02;17.27;;;10.90;;
16015;SDS011;8112;53.592;10.184;2023-02-22T16:48:10;18.30;;;11.33;;
16015;SDS011;8112;53.592;10.184;2023-02-22T16:53:19;15.80;;;10.20;;
16015;SDS011;8112;53.592;10.184;2023-02-22T16:58:25;19.67;;;12.10;;
16015;SDS011;8112;53.592;10.184;2023-02-22T17:03:27;16.87;;;11.43;;
16015;SDS011;8112;53.592;10.184;2023-02-22T17:08:29;19.93;;;11.50;;
16015;SDS011;8112;53.592;10.184;2023-02-22T17:13:33;17.70;;;11.07;;
16015;SDS011;8112;53.592;10.184;2023-02-22T17:18:35;17.50;;;10.70;;
16015;SDS011;8112;53.592;10.184;2023-02-22T17:23:38;15.73;;;10.30;;
16015;SDS011;8112;53.592;10.184;2023-02-22T17:28:46;16.80;;;10.63;;
16015;SDS011;8112;53.592;10.184;2023-02-22T17:33:48;16.67;;;10.00;;
16015;SDS011;8112;53.592;10.184;2023-02-22T17:38:50;15.70;;;10.37;;
16015;SDS011;8112;53.592;10.184;2023-02-22T17:43:54;13.87;;;9.50;;
16015;SDS011;8112;53.592;10.184;2023-02-22T17:48:58;13.10;;;9.03;;
16015;SDS011;8112;53.592;10.184;2023-02-22T17:54:01;14.53;;;9.33;;
16015;SDS011;8112;53.592;10.184;2023-02-22T17:59:04;13.10;;;8.37;;
16015;SDS011;8112;53.592;10.184;2023-02-22T18:04:08;14.17;;;8.73;;
16015;SDS011;8112;53.592;10.184;2023-02-22T18:09:17;13.83;;;8.83;;
16015;SDS011;8112;53.592;10.184;2023-02-22T18:14:24;14.03;;;9.07;;
16015;SDS011;8112;53.592;10.184;2023-02-22T18:19:25;14.90;;;9.10;;
16015;SDS011;8112;53.592;10.184;2023-02-22T18:24:30;13.87;;;8.57;;
16015;SDS011;8112;53.592;10.184;2023-02-22T18:29:35;12.60;;;8.67;;
16015;SDS011;8112;53.592;10.184;2023-02-22T18:34:37;15.87;;;9.57;;
16015;SDS011;8112;53.592;10.184;2023-02-22T18:39:40;13.40;;;8.50;;
16015;SDS011;8112;53.592;10.184;2023-02-22T18:44:44;13.50;;;9.37;;
16015;SDS011;8112;53.592;10.184;2023-02-22T20:57:30;16.97;;;11.33;;
16015;SDS011;8112;53.592;10.184;2023-02-22T21:02:32;17.97;;;11.27;;
16015;SDS011;8112;53.592;10.184;2023-02-22T21:07:35;16.97;;;10.90;;
16015;SDS011;8112;53.592;10.184;2023-02-22T21:12:38;19.20;;;11.43;;
16015;SDS011;8112;53.592;10.184;2023-02-22T21:17:41;16.47;;;11.03;;
16015;SDS011;8112;53.592;10.184;2023-02-22T21:22:46;15.50;;;10.50;;
16015;SDS011;8112;53.592;10.184;2023-02-22T21:27:51;13.80;;;10.30;;
16015;SDS011;8112;53.592;10.184;2023-02-22T21:32:53;16.97;;;10.10;;
16015;SDS011;8112;53.592;10.184;2023-02-22T21:37:55;15.97;;;10.17;;
16015;SDS011;8112;53.592;10.184;2023-02-22T21:42:58;16.53;;;10.23;;
16015;SDS011;8112;53.592;10.184;2023-02-22T21:48:00;15.40;;;9.63;;
16015;SDS011;8112;53.592;10.184;2023-02-22T21:53:01;17.10;;;10.77;;
16015;SDS011;8112;53.592;10.184;2023-02-22T21:58:06;18.10;;;10.87;;
16015;SDS011;8112;53.592;10.184;2023-02-22T22:03:08;13.73;;;10.73;;
16015;SDS011;8112;53.592;10.184;2023-02-22T22:08:19;15.20;;;10.80;;
16015;SDS011;8112;53.592;10.184;2023-02-22T22:13:23;16.60;;;10.63;;
16015;SDS011;8112;53.592;10.184;2023-02-22T22:18:25;15.07;;;11.37;;
16015;SDS011;8112;53.592;10.184;2023-02-22T22:23:27;16.60;;;11.10;;
16015;SDS011;8112;53.592;10.184;2023-02-22T22:28:30;15.13;;;10.47;;
16015;SDS011;8112;53.592;10.184;2023-02-22T22:33:32;14.40;;;10.70;;
16015;SDS011;8112;53.592;10.184;2023-02-22T22:38:35;13.63;;;10.60;;
16015;SDS011;8112;53.592;10.184;2023-02-22T22:43:40;17.17;;;11.27;;
16015;SDS011;8112;53.592;10.184;2023-02-22T22:48:45;14.57;;;10.57;;
16015;SDS011;8112;53.592;10.184;2023-02-22T22:53:47;17.53;;;11.07;;
16015;SDS011;8112;53.592;10.184;2023-02-22T22:58:52;14.90;;;11.10;;
16015;SDS011;8112;53.592;10.184;2023-02-22T23:03:56;14.47;;;10.30;;
16015;SDS011;8112;53.592;10.184;2023-02-22T23:09:02;17.93;;;11.10;;
16015;SDS011;8112;53.592;10.184;2023-02-22T23:14:11;16.03;;;10.80;;
16015;SDS011;8112;53.592;10.184;2023-02-22T23:19:14;15.93;;;11.40;;
16015;SDS011;8112;53.592;10.184;2023-02-22T23:24:18;13.63;;;9.70;;
16015;SDS011;8112;53.592;10.184;2023-02-22T23:29:21;16.80;;;10.57;;
16015;SDS011;8112;53.592;10.184;2023-02-22T23:34:23;14.37;;;10.83;;
16015;SDS011;8112;53.592;10.184;2023-02-22T23:39:28;17.90;;;10.53;;
16015;SDS011;8112;53.592;10.184;2023-02-22T23:44:31;14.77;;;9.83;;
16015;SDS011;8112;53.592;10.184;2023-02-22T23:49:33;13.67;;;10.20;;
16015;SDS011;8112;53.592;10.184;2023-02-22T23:54:37;16.97;;;10.07;;
16015;SDS011;8112;53.592;10.184;2023-02-22T23:59:44;13.50;;;10.93;;
